Time;durP1;ratioP1;P1;durP2;ratioP2;P2;SDS_P1;SDS_P2;PMS_P1;PMS_P2;Temp;Humidity;BMP_temperature;BMP_pressure;BME280_temperature;BME280_humidity;BME280_pressure;Samples;Min_cycle;Max_cycle;Signal;HPM_P1;HPM_P2
2021/03/23 00:00:45;;;;;;;20.52;6.65;;;;;;;-142.13;100.00;58370.81;4984993;28;20656;-71
2021/03/23 00:03:35;;;;;;;12.23;6.20;;;;;;;-142.13;100.00;58370.81;4981608;28;20220;-72
2021/03/23 00:06:04;;;;;;;15.43;7.10;;;;;;;-142.13;100.00;58370.81;4974540;28;20604;-71
2021/03/23 00:08:34;;;;;;;12.77;5.93;;;;;;;-142.13;100.00;58370.81;4990983;28;20223;-70
2021/03/23 00:11:06;;;;;;;15.32;6.85;;;;;;;-142.13;100.00;58370.81;4989252;28;20184;-72
2021/03/23 00:13:33;;;;;;;17.02;6.72;;;;;;;-142.13;100.00;58370.81;4985962;28;20739;-72
2021/03/23 00:16:01;;;;;;;15.18;7.13;;;;;;;-142.13;100.00;58370.81;4968838;28;20216;-71
2021/03/23 00:18:28;;;;;;;28.77;7.45;;;;;;;-142.13;100.00;58370.81;4989691;28;20676;-71
2021/03/23 00:20:56;;;;;;;20.27;8.00;;;;;;;-142.13;100.00;58370.81;4987347;28;20704;-71
2021/03/23 00:23:23;;;;;;;18.55;7.30;;;;;;;-142.13;100.00;58370.81;4987063;28;20595;-71
2021/03/23 00:25:50;;;;;;;14.48;6.97;;;;;;;-142.13;100.00;58370.81;4989495;28;20588;-70
2021/03/23 00:28:18;;;;;;;19.75;6.75;;;;;;;-142.13;100.00;58370.81;4990479;28;20616;-69
2021/03/23 00:30:45;;;;;;;18.15;6.75;;;;;;;-142.13;100.00;58370.81;4987745;28;20556;-71
2021/03/23 00:33:13;;;;;;;18.15;7.45;;;;;;;-142.13;100.00;58370.81;4986334;28;20703;-70
2021/03/23 00:35:40;;;;;;;15.77;7.57;;;;;;;-142.13;100.00;58370.81;4986451;28;20793;-72
2021/03/23 00:38:10;;;;;;;19.08;8.00;;;;;;;-142.13;100.00;58370.81;4986148;28;20522;-70
2021/03/23 00:40:38;;;;;;;15.30;7.65;;;;;;;-142.13;100.00;58370.81;4983097;28;20256;-70
2021/03/23 00:43:07;;;;;;;15.15;6.47;;;;;;;-142.13;100.00;58370.81;4965135;28;20914;-70
2021/03/23 00:45:43;;;;;;;18.40;7.30;;;;;;;-142.13;100.00;58370.81;4989653;28;20517;-70
2021/03/23 00:48:13;;;;;;;22.83;7.05;;;;;;;-142.13;100.00;58370.81;4980251;28;20223;-70
2021/03/23 00:50:41;;;;;;;15.00;7.35;;;;;;;-142.13;100.00;58370.81;4994557;28;20672;-70
2021/03/23 00:53:09;;;;;;;17.58;7.50;;;;;;;-142.13;100.00;58370.81;4985940;28;20232;-69
2021/03/23 00:55:44;;;;;;;17.50;8.30;;;;;;;-142.13;100.00;58370.81;4985443;28;20209;-71
2021/03/23 00:58:11;;;;;;;18.35;8.73;;;;;;;-142.13;100.00;58370.81;4967499;28;20592;-70
2021/03/23 01:00:38;;;;;;;20.33;10.45;;;;;;;-142.13;100.00;58370.81;4990870;28;20644;-70
2021/03/23 01:03:05;;;;;;;23.58;9.70;;;;;;;-142.13;100.00;58370.81;4989711;28;20592;-70
2021/03/23 01:05:35;;;;;;;20.75;10.48;;;;;;;-142.13;100.00;58370.81;4984127;28;20583;-70
2021/03/23 01:08:02;;;;;;;26.65;11.95;;;;;;;-142.13;100.00;58370.81;4987567;28;20226;-69
2021/03/23 01:10:32;;;;;;;19.65;10.80;;;;;;;-142.13;100.00;58370.81;4989655;28;20181;-69
2021/03/23 01:12:59;;;;;;;25.77;11.75;;;;;;;-142.13;100.00;58370.81;4987809;28;20730;-70
2021/03/23 01:15:29;;;;;;;27.88;13.60;;;;;;;-142.13;100.00;58370.81;4987171;28;20615;-70
2021/03/23 01:17:57;;;;;;;24.92;13.00;;;;;;;-142.13;100.00;58370.81;4986371;28;20217;-70
2021/03/23 01:20:26;;;;;;;26.27;13.50;;;;;;;-142.13;100.00;58370.81;4980112;28;20504;-70
2021/03/23 01:22:52;;;;;;;25.80;12.98;;;;;;;-142.13;100.00;58370.81;4983980;28;20225;-70
2021/03/23 01:25:22;;;;;;;27.05;12.00;;;;;;;-142.13;100.00;58370.81;4980851;28;20797;-70
2021/03/23 01:27:50;;;;;;;33.05;14.00;;;;;;;-142.13;100.00;58370.81;4986787;28;20582;-70
2021/03/23 01:30:19;;;;;;;34.42;14.52;;;;;;;-142.13;100.00;58370.81;4981972;28;20194;-69
2021/03/23 01:32:47;;;;;;;34.15;14.95;;;;;;;-142.13;100.00;58370.81;4985330;28;20222;-71
2021/03/23 01:35:15;;;;;;;33.25;16.02;;;;;;;-142.13;100.00;58370.81;4981607;28;20216;-70
2021/03/23 01:37:42;;;;;;;34.10;16.45;;;;;;;-142.13;100.00;58370.81;4963721;28;20604;-71
2021/03/23 01:40:11;;;;;;;38.13;15.52;;;;;;;-142.13;100.00;58370.81;4989081;28;20570;-69
2021/03/23 01:42:41;;;;;;;27.58;12.60;;;;;;;-142.13;100.00;58370.81;4987328;28;20294;-70
2021/03/23 01:45:23;;;;;;;30.05;13.35;;;;;;;-142.13;100.00;58370.81;4986456;28;20397;-70
2021/03/23 01:47:52;;;;;;;27.00;13.90;;;;;;;-142.13;100.00;58370.81;4987141;28;20581;-69
2021/03/23 01:50:20;;;;;;;28.92;13.15;;;;;;;-142.13;100.00;58370.81;4980835;28;20652;-70
2021/03/23 01:52:52;;;;;;;36.75;16.55;;;;;;;-142.13;100.00;58370.81;4988803;28;20577;-70
2021/03/23 01:55:23;;;;;;;29.02;14.68;;;;;;;-142.13;100.00;58370.81;4981882;28;20512;-69
2021/03/23 01:57:52;;;;;;;36.58;15.80;;;;;;;-142.13;100.00;58370.81;4968924;28;20225;-69
2021/03/23 02:00:21;;;;;;;30.73;14.73;;;;;;;-142.13;100.00;58370.81;4990161;28;20624;-69
2021/03/23 02:02:50;;;;;;;35.70;16.35;;;;;;;-142.13;100.00;58370.81;4991490;28;20224;-69
2021/03/23 02:05:25;;;;;;;35.13;16.50;;;;;;;-142.13;100.00;58370.81;4985851;28;20547;-69
2021/03/23 02:07:52;;;;;;;38.33;15.85;;;;;;;-142.13;100.00;58370.81;4986401;28;20217;-71
2021/03/23 02:10:21;;;;;;;41.20;16.23;;;;;;;-142.13;100.00;58370.81;4987694;28;20587;-71
2021/03/23 02:12:49;;;;;;;41.10;17.13;;;;;;;-142.13;100.00;58370.81;4988309;28;20221;-70
2021/03/23 02:15:19;;;;;;;34.17;15.18;;;;;;;-142.13;100.00;58370.81;4989698;28;20791;-70
2021/03/23 02:18:09;;;;;;;34.70;14.65;;;;;;;-142.13;100.00;58370.81;4994008;28;20221;-70
2021/03/23 02:20:39;;;;;;;32.40;15.55;;;;;;;-142.13;100.00;58370.81;4990718;28;20722;-70
2021/03/23 02:23:09;;;;;;;31.00;14.13;;;;;;;-142.13;100.00;58370.81;4984766;28;20541;-70
2021/03/23 02:25:37;;;;;;;33.35;15.60;;;;;;;-142.13;100.00;58370.81;4988210;28;20660;-70
2021/03/23 02:28:04;;;;;;;31.52;14.77;;;;;;;-142.13;100.00;58370.81;4992078;28;20743;-70
2021/03/23 02:30:36;;;;;;;35.35;14.38;;;;;;;-142.13;100.00;58370.81;4988414;28;20182;-71
2021/03/23 02:33:04;;;;;;;31.65;13.82;;;;;;;-142.13;100.00;58370.81;4991812;28;20222;-71
2021/03/23 02:35:32;;;;;;;31.70;13.88;;;;;;;-142.13;100.00;58370.81;4987768;28;20200;-71
2021/03/23 02:38:00;;;;;;;29.40;14.70;;;;;;;-142.13;100.00;58370.81;4987970;28;20601;-70
2021/03/23 02:40:29;;;;;;;39.80;14.70;;;;;;;-142.13;100.00;58370.81;4989734;28;20218;-71
2021/03/23 02:42:57;;;;;;;26.65;13.43;;;;;;;-142.13;100.00;58370.81;4968555;28;20621;-71
2021/03/23 02:45:25;;;;;;;28.15;14.23;;;;;;;-142.13;100.00;58370.81;4987439;28;20247;-70
2021/03/23 02:47:52;;;;;;;29.33;14.30;;;;;;;-142.13;100.00;58370.81;4984119;28;20303;-69
2021/03/23 02:50:20;;;;;;;26.33;14.02;;;;;;;-142.13;100.00;58370.81;4989973;28;20185;-70
2021/03/23 02:52:47;;;;;;;34.13;13.68;;;;;;;-142.13;100.00;58370.81;4971627;28;20722;-71
2021/03/23 02:55:14;;;;;;;32.55;14.20;;;;;;;-142.13;100.00;58370.81;4987722;28;20201;-72
2021/03/23 02:57:42;;;;;;;39.25;14.90;;;;;;;-142.13;100.00;58370.81;4989097;28;20741;-70
2021/03/23 03:00:14;;;;;;;28.60;13.90;;;;;;;-142.13;100.00;58370.81;4989668;28;20190;-69
2021/03/23 03:03:06;;;;;;;25.50;12.35;;;;;;;-142.13;100.00;58370.81;4990778;28;20525;-70
2021/03/23 03:05:51;;;;;;;28.73;12.43;;;;;;;-142.13;100.00;58370.81;4985090;28;20283;-70
2021/03/23 03:08:19;;;;;;;29.67;13.15;;;;;;;-142.13;100.00;58370.81;4984608;28;20232;-70
2021/03/23 03:10:47;;;;;;;25.77;13.25;;;;;;;-142.13;100.00;58370.81;4991051;28;20196;-70
2021/03/23 03:13:16;;;;;;;30.90;13.88;;;;;;;-142.13;100.00;58370.81;4985884;28;20524;-70
2021/03/23 03:15:43;;;;;;;32.25;13.80;;;;;;;-142.13;100.00;58370.81;4985700;28;20504;-70
2021/03/23 03:18:10;;;;;;;33.60;12.85;;;;;;;-142.13;100.00;58370.81;4986793;28;20221;-70
2021/03/23 03:20:38;;;;;;;33.10;14.85;;;;;;;-142.13;100.00;58370.81;4988547;28;20527;-71
2021/03/23 03:23:05;;;;;;;32.55;13.40;;;;;;;-142.13;100.00;58370.81;4989946;28;20213;-69
2021/03/23 03:25:32;;;;;;;27.75;12.88;;;;;;;-142.13;100.00;58370.81;4991047;28;20550;-70
2021/03/23 03:27:59;;;;;;;31.92;13.18;;;;;;;-142.13;100.00;58370.81;4989338;28;20290;-70
2021/03/23 03:30:29;;;;;;;33.80;14.18;;;;;;;-142.13;100.00;58370.81;4988539;28;20193;-70
2021/03/23 03:32:58;;;;;;;35.38;14.50;;;;;;;-142.13;100.00;58370.81;4984735;28;20643;-70
2021/03/23 03:35:27;;;;;;;32.50;14.10;;;;;;;-142.13;100.00;58370.81;4985408;28;20655;-70
2021/03/23 03:37:54;;;;;;;30.90;13.93;;;;;;;-142.13;100.00;58370.81;4985957;28;20681;-70
2021/03/23 03:40:25;;;;;;;28.45;12.88;;;;;;;-142.13;100.00;58370.81;4986555;28;20628;-68
2021/03/23 03:42:52;;;;;;;31.70;13.55;;;;;;;-142.13;100.00;58370.81;4985765;28;20308;-70
2021/03/23 03:45:21;;;;;;;32.83;13.30;;;;;;;-142.13;100.00;58370.81;4983730;28;20252;-69
2021/03/23 03:47:50;;;;;;;27.50;13.70;;;;;;;-142.13;100.00;58370.81;4989730;28;20627;-70
2021/03/23 03:50:18;;;;;;;33.25;14.02;;;;;;;-142.13;100.00;58370.81;4992354;28;20712;-70
2021/03/23 03:52:45;;;;;;;31.92;13.65;;;;;;;-142.13;100.00;58370.81;4989018;28;20254;-71
2021/03/23 03:55:14;;;;;;;37.17;14.60;;;;;;;-142.13;100.00;58370.81;4990997;28;20907;-70
2021/03/23 03:57:41;;;;;;;31.95;14.00;;;;;;;-142.13;100.00;58370.81;4989301;28;20580;-71
2021/03/23 04:00:10;;;;;;;31.15;14.57;;;;;;;-142.13;100.00;58370.81;4993483;28;20225;-69
2021/03/23 04:02:37;;;;;;;37.75;14.77;;;;;;;-142.13;100.00;58370.81;4985070;28;20718;-70
2021/03/23 04:05:06;;;;;;;31.77;13.73;;;;;;;-142.13;100.00;58370.81;4981744;28;20224;-70
2021/03/23 04:07:33;;;;;;;30.95;13.63;;;;;;;-142.13;100.00;58370.81;4984243;28;20276;-71
2021/03/23 04:10:00;;;;;;;28.98;15.70;;;;;;;-142.13;100.00;58370.81;4984104;28;20260;-71
2021/03/23 04:12:27;;;;;;;34.80;14.77;;;;;;;-142.13;100.00;58370.81;4982701;28;20233;-70
2021/03/23 04:14:54;;;;;;;30.55;14.35;;;;;;;-142.13;100.00;58370.81;4984433;28;20599;-71
2021/03/23 04:17:21;;;;;;;28.83;14.10;;;;;;;-142.13;100.00;58370.81;4992867;28;20561;-69
2021/03/23 04:19:48;;;;;;;27.40;13.73;;;;;;;-142.13;100.00;58370.81;4984556;28;20204;-71
2021/03/23 04:22:15;;;;;;;37.50;13.68;;;;;;;-142.13;100.00;58370.81;4980529;28;20217;-70
2021/03/23 04:24:42;;;;;;;29.80;13.95;;;;;;;-142.13;100.00;58370.81;4986328;28;20579;-70
2021/03/23 04:27:10;;;;;;;33.47;13.68;;;;;;;-142.13;100.00;58370.81;4987747;28;20551;-70
2021/03/23 04:29:36;;;;;;;24.02;11.88;;;;;;;-142.13;100.00;58370.81;4984126;28;20197;-71
2021/03/23 04:32:04;;;;;;;25.23;12.45;;;;;;;-142.13;100.00;58370.81;4984600;28;20680;-70
2021/03/23 04:34:31;;;;;;;32.03;14.50;;;;;;;-142.13;100.00;58370.81;4988828;28;20609;-69
2021/03/23 04:37:03;;;;;;;38.08;14.25;;;;;;;-142.13;100.00;58370.81;4988672;28;20224;-70
2021/03/23 04:39:31;;;;;;;26.35;13.95;;;;;;;-142.13;100.00;58370.81;4990250;28;20199;-70
2021/03/23 04:41:58;;;;;;;31.33;13.20;;;;;;;-142.13;100.00;58370.81;4990283;28;20228;-69
2021/03/23 04:44:24;;;;;;;31.30;13.60;;;;;;;-142.13;100.00;58370.81;4986015;28;20313;-69
2021/03/23 04:46:51;;;;;;;38.60;14.35;;;;;;;-142.13;100.00;58370.81;4984870;28;20173;-69
2021/03/23 04:49:19;;;;;;;39.63;13.82;;;;;;;-142.13;100.00;58370.81;4970342;28;20758;-70
2021/03/23 04:52:07;;;;;;;30.92;14.57;;;;;;;-142.13;100.00;58370.81;4992085;28;20204;-69
2021/03/23 04:55:45;;;;;;;32.67;14.60;;;;;;;-142.13;100.00;58370.81;4999294;28;20220;-69
2021/03/23 04:58:28;;;;;;;25.95;13.30;;;;;;;-142.13;100.00;58370.81;4988773;28;20232;-69
2021/03/23 05:00:57;;;;;;;29.08;13.88;;;;;;;-142.13;100.00;58370.81;4983220;28;20186;-69
2021/03/23 05:03:26;;;;;;;26.30;13.40;;;;;;;-142.13;100.00;58370.81;4986093;28;20259;-70
2021/03/23 05:05:54;;;;;;;30.38;12.57;;;;;;;-142.13;100.00;58370.81;4966026;28;20266;-68
2021/03/23 05:08:21;;;;;;;31.23;14.77;;;;;;;-142.13;100.00;58370.81;4985585;28;20222;-69
2021/03/23 05:10:54;;;;;;;34.35;14.52;;;;;;;-142.13;100.00;58370.81;4983115;28;20789;-70
2021/03/23 05:13:24;;;;;;;32.50;14.65;;;;;;;-142.13;100.00;58370.81;4988005;28;20672;-68
2021/03/23 05:15:50;;;;;;;29.95;13.70;;;;;;;-142.13;100.00;58370.81;4983022;28;20737;-69
2021/03/23 05:18:18;;;;;;;29.95;15.10;;;;;;;-142.13;100.00;58370.81;4987272;28;20246;-68
2021/03/23 05:20:45;;;;;;;39.85;14.18;;;;;;;-142.13;100.00;58370.81;4984907;28;20725;-69
2021/03/23 05:23:13;;;;;;;27.50;14.00;;;;;;;-142.13;100.00;58370.81;4983989;28;20216;-68
2021/03/23 05:25:41;;;;;;;33.42;13.65;;;;;;;-142.13;100.00;58370.81;4980312;28;20568;-69
2021/03/23 05:28:10;;;;;;;33.67;13.70;;;;;;;-142.13;100.00;58370.81;4985995;28;20592;-69
2021/03/23 05:30:38;;;;;;;35.10;14.60;;;;;;;-142.13;100.00;58370.81;4986058;28;20200;-70
2021/03/23 05:33:05;;;;;;;30.33;13.85;;;;;;;-142.13;100.00;58370.81;4983628;28;20236;-69
2021/03/23 05:35:33;;;;;;;29.65;13.88;;;;;;;-142.13;100.00;58370.81;4986697;28;20786;-70
2021/03/23 05:38:00;;;;;;;34.65;15.95;;;;;;;-142.13;100.00;58370.81;4968842;28;20271;-70
2021/03/23 05:40:30;;;;;;;31.40;14.63;;;;;;;-142.13;100.00;58370.81;4993381;28;20189;-69
2021/03/23 05:43:06;;;;;;;29.15;14.20;;;;;;;-142.13;100.00;58370.81;4988673;28;20867;-69
2021/03/23 05:45:37;;;;;;;31.33;15.50;;;;;;;-142.13;100.00;58370.81;4988957;28;20523;-70
2021/03/23 05:48:24;;;;;;;28.08;13.65;;;;;;;-142.13;100.00;58370.81;4987025;28;20234;-69
2021/03/23 05:51:03;;;;;;;35.53;14.68;;;;;;;-142.13;100.00;58370.81;4993773;28;20569;-70
2021/03/23 05:53:54;;;;;;;28.65;13.48;;;;;;;-142.13;100.00;58370.81;4989367;28;20268;-70
2021/03/23 05:56:22;;;;;;;31.10;15.25;;;;;;;-142.13;100.00;58370.81;4986596;28;20690;-69
2021/03/23 05:58:51;;;;;;;34.03;14.95;;;;;;;-142.13;100.00;58370.81;4993838;28;20223;-69
2021/03/23 06:01:25;;;;;;;35.30;17.48;;;;;;;-142.13;100.00;58370.81;4990178;28;20635;-69
2021/03/23 06:03:58;;;;;;;30.83;13.95;;;;;;;-142.13;100.00;58370.81;4987402;28;20647;-69
2021/03/23 06:06:38;;;;;;;36.53;17.30;;;;;;;-142.13;100.00;58370.81;4985504;28;20744;-68
2021/03/23 06:09:05;;;;;;;27.08;13.40;;;;;;;-142.13;100.00;58370.81;4992345;28;20217;-69
2021/03/23 06:11:48;;;;;;;34.28;16.20;;;;;;;-142.13;100.00;58370.81;4988702;28;20439;-70
2021/03/23 06:14:39;;;;;;;36.05;15.55;;;;;;;-142.13;100.00;58370.81;4983921;28;20213;-69
2021/03/23 06:17:29;;;;;;;30.15;13.23;;;;;;;-142.13;100.00;58370.81;4962275;28;20212;-69
2021/03/23 06:20:05;;;;;;;38.15;16.75;;;;;;;-142.13;100.00;58370.81;4972627;28;20283;-69
2021/03/23 06:22:43;;;;;;;41.33;14.50;;;;;;;-142.13;100.00;58370.81;4984950;28;20611;-68
2021/03/23 06:25:24;;;;;;;31.83;14.05;;;;;;;-142.13;100.00;58370.81;4967726;28;20518;-69
2021/03/23 06:27:54;;;;;;;36.65;15.55;;;;;;;-142.13;100.00;58370.81;4989028;28;20660;-69
2021/03/23 06:30:48;;;;;;;30.30;14.68;;;;;;;-142.13;100.00;58370.81;4989088;28;20189;-71
2021/03/23 06:33:20;;;;;;;41.22;15.23;;;;;;;-142.13;100.00;58370.81;4983180;28;20556;-70
2021/03/23 06:35:53;;;;;;;35.97;15.48;;;;;;;-142.13;100.00;58370.81;4984140;28;20217;-69
2021/03/23 06:38:34;;;;;;;29.85;14.32;;;;;;;-142.13;100.00;58370.81;4985407;28;20260;-68
2021/03/23 06:41:14;;;;;;;32.65;15.23;;;;;;;-142.13;100.00;58370.81;4968116;28;20263;-70
2021/03/23 06:43:43;;;;;;;41.95;17.15;;;;;;;-142.13;100.00;58370.81;4982622;28;20275;-70
2021/03/23 06:46:21;;;;;;;37.47;16.27;;;;;;;-142.13;100.00;58370.81;4985418;28;20622;-70
2021/03/23 06:49:05;;;;;;;37.38;15.60;;;;;;;-142.13;100.00;58370.81;4988224;28;20225;-70
2021/03/23 06:51:32;;;;;;;28.02;14.50;;;;;;;-142.13;100.00;58370.81;4990123;28;20192;-69
2021/03/23 06:54:17;;;;;;;31.95;16.10;;;;;;;-142.13;100.00;58370.81;4972451;28;20271;-69
2021/03/23 06:56:45;;;;;;;39.15;16.35;;;;;;;-142.13;100.00;58370.81;4989939;28;20198;-70
2021/03/23 06:59:15;;;;;;;45.50;15.63;;;;;;;-142.13;100.00;58370.81;4989137;28;20196;-69
2021/03/23 07:01:43;;;;;;;38.90;17.58;;;;;;;-142.13;100.00;58370.81;4988518;28;20216;-70
2021/03/23 07:04:27;;;;;;;40.63;18.48;;;;;;;-142.13;100.00;58370.81;4989128;28;20217;-70
2021/03/23 07:07:04;;;;;;;32.05;15.40;;;;;;;-142.13;100.00;58370.81;4985525;28;20253;-70
2021/03/23 07:09:31;;;;;;;41.08;16.20;;;;;;;-142.13;100.00;58370.81;4985667;28;20246;-70
2021/03/23 07:12:01;;;;;;;37.13;15.15;;;;;;;-142.13;100.00;58370.81;4985625;28;20252;-69
2021/03/23 07:14:32;;;;;;;37.83;17.05;;;;;;;-142.13;100.00;58370.81;4993854;28;20193;-69
2021/03/23 07:17:19;;;;;;;34.30;16.52;;;;;;;-142.13;100.00;58370.81;4987366;28;20586;-69
2021/03/23 07:19:51;;;;;;;30.90;14.35;;;;;;;-142.13;100.00;58370.81;4970054;28;20198;-70
2021/03/23 07:22:24;;;;;;;35.75;15.43;;;;;;;-142.13;100.00;58370.81;4984960;28;20548;-69
2021/03/23 07:24:53;;;;;;;38.05;15.68;;;;;;;-142.13;100.00;58370.81;4974934;28;20200;-69
2021/03/23 07:27:23;;;;;;;28.60;14.85;;;;;;;-142.13;100.00;58370.81;4985339;28;20876;-69
2021/03/23 07:29:50;;;;;;;46.90;17.70;;;;;;;-142.13;100.00;58370.81;4987440;28;20573;-69
2021/03/23 07:32:42;;;;;;;31.15;15.45;;;;;;;-142.13;100.00;58370.81;4986400;28;20221;-70
2021/03/23 07:35:21;;;;;;;34.35;16.00;;;;;;;-142.13;100.00;58370.81;4963905;28;20578;-70
2021/03/23 07:37:54;;;;;;;34.28;17.45;;;;;;;-142.13;100.00;58370.81;4983973;28;20593;-68
2021/03/23 07:40:34;;;;;;;33.28;15.38;;;;;;;-142.13;100.00;58370.81;4971383;28;20193;-69
2021/03/23 07:43:17;;;;;;;34.22;14.77;;;;;;;-142.13;100.00;58370.81;4982701;28;20221;-70
2021/03/23 07:45:54;;;;;;;38.53;16.35;;;;;;;-142.13;100.00;58370.81;4968526;28;20680;-70
2021/03/23 07:48:29;;;;;;;42.08;17.52;;;;;;;-142.13;100.00;58370.81;4968224;28;20225;-69
2021/03/23 07:51:10;;;;;;;38.47;14.73;;;;;;;-142.13;100.00;58370.81;4985295;28;20694;-71
2021/03/23 07:53:41;;;;;;;38.83;16.63;;;;;;;-142.13;100.00;58370.81;4989775;28;20217;-69
2021/03/23 07:56:30;;;;;;;48.88;18.77;;;;;;;-142.13;100.00;58370.81;4990084;28;20772;-70
2021/03/23 07:59:06;;;;;;;35.90;17.23;;;;;;;-142.13;100.00;58370.81;4987200;28;20248;-70
2021/03/23 08:01:45;;;;;;;35.35;16.85;;;;;;;-142.13;100.00;58370.81;4990557;28;20196;-72
2021/03/23 08:04:16;;;;;;;38.90;17.30;;;;;;;-142.13;100.00;58370.81;4993031;28;20216;-71
2021/03/23 08:06:54;;;;;;;36.15;17.50;;;;;;;-142.13;100.00;58370.81;4988064;28;20685;-71
2021/03/23 08:09:53;;;;;;;38.33;16.83;;;;;;;-142.13;100.00;58370.81;4988966;28;20713;-69
2021/03/23 08:12:44;;;;;;;40.35;18.20;;;;;;;-142.13;100.00;58370.81;4981080;28;20217;-70
2021/03/23 08:15:18;;;;;;;48.03;18.60;;;;;;;-142.13;100.00;58370.81;4977124;28;20197;-69
2021/03/23 08:18:08;;;;;;;50.53;20.52;;;;;;;-142.13;100.00;58370.81;4990747;28;20244;-70
2021/03/23 08:21:02;;;;;;;47.47;19.33;;;;;;;-142.13;100.00;58370.81;4983321;28;20273;-68
2021/03/23 08:23:46;;;;;;;47.42;18.13;;;;;;;-142.13;100.00;58370.81;4986857;28;20783;-69
2021/03/23 08:26:28;;;;;;;54.50;18.83;;;;;;;-142.13;100.00;58370.81;4986223;28;20252;-69
2021/03/23 08:29:04;;;;;;;40.22;18.50;;;;;;;-142.13;100.00;58370.81;4983349;28;20221;-70
2021/03/23 08:31:39;;;;;;;38.72;16.85;;;;;;;-142.13;100.00;58370.81;4984658;28;20519;-71
2021/03/23 08:34:43;;;;;;;40.65;18.85;;;;;;;-142.13;100.00;58370.81;4989047;28;20594;-73
2021/03/23 08:37:36;;;;;;;39.90;17.17;;;;;;;-142.13;100.00;58370.81;4989103;28;20268;-72
2021/03/23 08:40:16;;;;;;;46.35;19.58;;;;;;;-142.13;100.00;58370.81;4980333;28;20185;-72
2021/03/23 08:42:45;;;;;;;40.35;17.10;;;;;;;-142.13;100.00;58370.81;4989066;28;20393;-72
2021/03/23 08:45:18;;;;;;;43.17;17.98;;;;;;;-142.13;100.00;58370.81;4987212;28;20645;-71
2021/03/23 08:47:47;;;;;;;43.00;17.58;;;;;;;-142.13;100.00;58370.81;4988920;28;20212;-70
2021/03/23 08:50:21;;;;;;;46.97;18.40;;;;;;;-142.13;100.00;58370.81;4990576;28;20492;-72
2021/03/23 08:52:51;;;;;;;43.20;17.67;;;;;;;-142.13;100.00;58370.81;4974968;28;20303;-70
2021/03/23 08:55:47;;;;;;;40.30;17.98;;;;;;;-142.13;100.00;58370.81;4985645;28;20197;-71
2021/03/23 08:58:18;;;;;;;37.35;16.88;;;;;;;-142.13;100.00;58370.81;4989311;28;20231;-70
2021/03/23 09:01:06;;;;;;;35.67;14.98;;;;;;;-142.13;100.00;58370.81;4986651;28;20851;-70
2021/03/23 09:03:43;;;;;;;39.20;17.48;;;;;;;-142.13;100.00;58370.81;4985987;28;20217;-71
2021/03/23 09:06:13;;;;;;;40.65;16.67;;;;;;;-142.13;100.00;58370.81;4986816;28;20264;-71
2021/03/23 09:08:44;;;;;;;45.78;17.00;;;;;;;-142.13;100.00;58370.81;4986646;28;20228;-71
2021/03/23 09:11:15;;;;;;;38.45;17.35;;;;;;;-142.13;100.00;58370.81;4988762;28;20201;-69
2021/03/23 09:14:12;;;;;;;44.78;17.20;;;;;;;-142.13;100.00;58370.81;4964249;28;20235;-69
2021/03/23 09:17:16;;;;;;;34.95;16.40;;;;;;;-142.13;100.00;58370.81;4985415;28;20201;-69
2021/03/23 09:19:55;;;;;;;44.60;15.68;;;;;;;-142.13;100.00;58370.81;4987554;28;20201;-69
2021/03/23 09:22:34;;;;;;;35.58;13.65;;;;;;;-142.13;100.00;58370.81;4981488;28;20213;-70
2021/03/23 09:25:24;;;;;;;30.13;14.43;;;;;;;-142.13;100.00;58370.81;4981101;28;20668;-69
2021/03/23 09:28:04;;;;;;;32.25;13.80;;;;;;;-142.13;100.00;58370.81;4987686;28;20849;-68
2021/03/23 09:30:51;;;;;;;25.73;11.75;;;;;;;-142.13;100.00;58370.81;4975908;28;20198;-69
2021/03/23 09:33:38;;;;;;;28.60;11.77;;;;;;;-142.13;100.00;58370.81;4983085;28;20229;-69
2021/03/23 09:36:45;;;;;;;25.55;11.20;;;;;;;-142.13;100.00;58370.81;4981612;28;20232;-70
2021/03/23 09:39:44;;;;;;;24.45;11.90;;;;;;;-142.13;100.00;58370.81;4987432;28;20271;-70
2021/03/23 09:42:29;;;;;;;26.15;11.73;;;;;;;-142.13;100.00;58370.81;4990084;28;20221;-69
2021/03/23 09:45:18;;;;;;;20.88;9.65;;;;;;;-142.13;100.00;58370.81;4986443;28;20190;-70
2021/03/23 09:47:58;;;;;;;19.15;9.10;;;;;;;-142.13;100.00;58370.81;4982429;28;20275;-69
2021/03/23 09:50:40;;;;;;;20.70;10.47;;;;;;;-142.13;100.00;58370.81;4983097;28;20252;-70
2021/03/23 09:53:28;;;;;;;20.20;10.07;;;;;;;-142.13;100.00;58370.81;4985010;28;20733;-70
2021/03/23 09:56:04;;;;;;;21.00;8.80;;;;;;;-142.13;100.00;58370.81;4986401;28;20479;-70
2021/03/23 09:58:31;;;;;;;22.80;10.57;;;;;;;-142.13;100.00;58370.81;4983324;28;20945;-69
2021/03/23 10:01:11;;;;;;;20.87;9.83;;;;;;;-142.13;100.00;58370.81;4986570;28;20656;-68
2021/03/23 10:03:41;;;;;;;27.33;10.17;;;;;;;-142.13;100.00;58370.81;4984099;28;20494;-69
2021/03/23 10:06:13;;;;;;;20.17;9.27;;;;;;;-142.13;100.00;58370.81;4968754;28;20775;-69
2021/03/23 10:08:50;;;;;;;17.98;8.98;;;;;;;-142.13;100.00;58370.81;4988069;28;20994;-69
2021/03/23 10:11:22;;;;;;;16.83;8.77;;;;;;;-142.13;100.00;58370.81;4965381;28;20660;-69
2021/03/23 10:13:53;;;;;;;16.80;8.10;;;;;;;-142.13;100.00;58370.81;4986100;28;20471;-69
2021/03/23 10:16:25;;;;;;;20.58;9.82;;;;;;;-142.13;100.00;58370.81;4982777;28;20460;-70
2021/03/23 10:18:54;;;;;;;19.30;9.20;;;;;;;-142.13;100.00;58370.81;4990015;28;20706;-69
2021/03/23 10:21:27;;;;;;;17.92;7.57;;;;;;;-142.13;100.00;58370.81;4987369;28;20926;-69
2021/03/23 10:23:57;;;;;;;21.43;8.37;;;;;;;-142.13;100.00;58370.81;4988075;28;20230;-70
2021/03/23 10:26:29;;;;;;;21.20;8.47;;;;;;;-142.13;100.00;58370.81;4987517;28;20754;-69
2021/03/23 10:29:11;;;;;;;17.87;8.00;;;;;;;-142.13;100.00;58370.81;4984101;28;20853;-69
2021/03/23 10:31:41;;;;;;;16.73;8.47;;;;;;;-142.13;100.00;58370.81;4988887;28;20889;-70
2021/03/23 10:34:15;;;;;;;19.13;8.20;;;;;;;-142.13;100.00;58370.81;4992230;28;20840;-69
2021/03/23 10:36:46;;;;;;;9.33;5.13;;;;;;;-142.13;100.00;58370.81;4970595;28;20467;-70
2021/03/23 10:39:35;;;;;;;11.07;5.87;;;;;;;-142.13;100.00;58370.81;4966834;28;20444;-70
2021/03/23 10:42:18;;;;;;;20.90;7.90;;;;;;;-142.13;100.00;58370.81;4989300;28;21038;-70
2021/03/23 10:44:45;;;;;;;23.13;8.77;;;;;;;-142.13;100.00;58370.81;4986405;28;20435;-70
2021/03/23 10:47:31;;;;;;;23.07;8.80;;;;;;;-142.13;100.00;58370.81;4985348;28;20851;-70
2021/03/23 10:50:19;;;;;;;14.70;6.17;;;;;;;-142.13;100.00;58370.81;4988657;28;20942;-69
2021/03/23 10:52:47;;;;;;;25.63;7.80;;;;;;;-142.13;100.00;58370.81;4994884;28;20527;-70
2021/03/23 10:55:25;;;;;;;14.07;7.53;;;;;;;-142.13;100.00;58370.81;4989383;28;20440;-70
2021/03/23 10:58:13;;;;;;;16.40;7.37;;;;;;;-142.13;100.00;58370.81;4967154;28;20970;-73
2021/03/23 11:00:40;;;;;;;21.33;8.80;;;;;;;-142.13;100.00;58370.81;4989691;28;20446;-70
2021/03/23 11:03:32;;;;;;;11.30;6.40;;;;;;;-142.13;100.00;58370.81;4992484;28;20980;-72
2021/03/23 11:06:01;;;;;;;13.93;6.37;;;;;;;-142.13;100.00;58370.81;4983315;28;20483;-73
2021/03/23 11:08:29;;;;;;;10.23;5.33;;;;;;;-142.13;100.00;58370.81;4990067;28;20983;-71
2021/03/23 11:10:57;;;;;;;14.27;6.63;;;;;;;-142.13;100.00;58370.81;4985768;28;20765;-72
2021/03/23 11:13:24;;;;;;;15.07;6.90;;;;;;;-142.13;100.00;58370.81;4984260;28;20763;-72
2021/03/23 11:15:53;;;;;;;19.40;7.63;;;;;;;-142.13;100.00;58370.81;4988126;28;20476;-71
2021/03/23 11:18:28;;;;;;;13.60;7.07;;;;;;;-142.13;100.00;58370.81;4990241;28;20995;-70
2021/03/23 11:20:58;;;;;;;11.13;5.20;;;;;;;-142.13;100.00;58370.81;4987904;28;20438;-72
2021/03/23 11:23:38;;;;;;;9.10;4.50;;;;;;;-142.13;100.00;58370.81;4988874;28;20460;-72
2021/03/23 11:26:07;;;;;;;10.20;5.33;;;;;;;-142.13;100.00;58370.81;4986503;28;20447;-71